createdAt,value
2018-03-24T00:00:50.839Z,4.50
2018-03-24T00:03:19.100Z,4.50
2018-03-24T00:05:46.561Z,4.50
2018-03-24T00:08:14.862Z,4.50
2018-03-24T00:10:42.335Z,4.50
2018-03-24T00:13:09.822Z,4.40
2018-03-24T00:15:37.337Z,4.40
2018-03-24T00:18:04.833Z,4.20
2018-03-24T00:20:32.526Z,4.20
2018-03-24T00:23:00.028Z,4.10
2018-03-24T00:25:27.632Z,4.00
2018-03-24T00:27:55.152Z,4.00
2018-03-24T00:30:22.701Z,3.90
2018-03-24T00:32:51.007Z,3.90
2018-03-24T00:35:18.932Z,3.80
2018-03-24T00:37:46.424Z,3.90
2018-03-24T00:40:13.916Z,3.80
2018-03-24T00:42:41.408Z,3.80
2018-03-24T00:45:08.928Z,3.90
2018-03-24T00:47:36.639Z,4.00
2018-03-24T00:50:04.123Z,4.00
2018-03-24T00:52:31.772Z,4.00
2018-03-24T00:54:59.471Z,4.10
2018-03-24T00:57:26.773Z,4.10
2018-03-24T00:59:54.246Z,4.20
2018-03-24T01:02:22.536Z,4.30
2018-03-24T01:04:50.227Z,4.20
2018-03-24T01:07:17.918Z,4.30
2018-03-24T01:09:45.421Z,4.30
2018-03-24T01:12:12.929Z,4.30
2018-03-24T01:14:40.422Z,4.40
2018-03-24T01:17:07.918Z,4.40
2018-03-24T01:19:36.197Z,4.70
2018-03-24T01:22:04.488Z,4.80
2018-03-24T01:24:31.950Z,4.70
2018-03-24T01:26:59.460Z,4.80
2018-03-24T01:29:26.933Z,4.90
2018-03-24T01:31:55.213Z,5.00
2018-03-24T01:34:22.681Z,5.00
2018-03-24T01:36:50.178Z,5.00
2018-03-24T01:39:17.665Z,5.00
2018-03-24T01:41:45.147Z,5.00
2018-03-24T01:44:12.645Z,5.00
2018-03-24T01:46:40.128Z,5.00
2018-03-24T01:49:07.618Z,5.00
2018-03-24T01:51:35.117Z,5.10
2018-03-24T01:54:02.581Z,5.10
2018-03-24T01:56:30.069Z,5.10
2018-03-24T01:58:57.576Z,5.10
2018-03-24T02:01:25.053Z,5.10
2018-03-24T02:03:52.544Z,5.10
2018-03-24T02:06:20.055Z,5.10
2018-03-24T02:08:47.519Z,5.10
2018-03-24T02:11:15.032Z,5.10
2018-03-24T02:13:42.504Z,5.10
2018-03-24T02:16:10.345Z,5.10
2018-03-24T02:18:37.821Z,5.10
2018-03-24T02:21:19.996Z,5.20
2018-03-24T02:23:47.290Z,5.20
2018-03-24T02:26:14.591Z,5.20
2018-03-24T02:28:41.909Z,5.10
2018-03-24T02:31:09.206Z,5.10
2018-03-24T02:33:37.272Z,5.20
2018-03-24T02:36:04.761Z,5.20
2018-03-24T02:38:32.276Z,5.10
2018-03-24T02:41:00.535Z,5.20
2018-03-24T02:43:28.006Z,5.20
2018-03-24T02:45:56.255Z,5.20
2018-03-24T02:48:23.770Z,5.10
2018-03-24T02:50:51.241Z,5.20
2018-03-24T02:53:18.728Z,5.20
2018-03-24T02:55:46.228Z,5.20
2018-03-24T02:58:13.721Z,5.20
2018-03-24T03:00:41.201Z,5.20
2018-03-24T03:03:08.678Z,5.20
2018-03-24T03:05:35.984Z,5.20
2018-03-24T03:08:03.472Z,5.20
2018-03-24T03:10:30.947Z,5.20
2018-03-24T03:12:58.425Z,5.30
2018-03-24T03:15:25.941Z,5.30
2018-03-24T03:17:53.489Z,5.30
2018-03-24T03:20:21.773Z,5.30
2018-03-24T03:22:49.298Z,5.20
2018-03-24T03:25:16.797Z,5.30
2018-03-24T03:27:44.307Z,5.30
2018-03-24T03:30:31.417Z,5.30
2018-03-24T03:32:58.731Z,5.30
2018-03-24T03:35:26.214Z,5.30
2018-03-24T03:37:53.698Z,5.30
2018-03-24T03:40:21.169Z,5.40
2018-03-24T03:42:48.685Z,5.30
2018-03-24T03:45:16.167Z,5.40
2018-03-24T03:47:43.652Z,5.30
2018-03-24T03:50:11.134Z,5.40
2018-03-24T03:52:38.647Z,5.30
2018-03-24T03:55:06.115Z,5.40
2018-03-24T03:57:33.596Z,5.40
2018-03-24T04:00:01.845Z,5.40
2018-03-24T04:02:29.353Z,5.40
2018-03-24T04:04:56.878Z,5.30
2018-03-24T04:07:24.397Z,5.40
2018-03-24T04:09:52.675Z,5.40
2018-03-24T04:12:20.164Z,5.40
2018-03-24T04:14:47.695Z,5.40
2018-03-24T04:17:15.962Z,5.40
2018-03-24T04:19:44.069Z,5.40
2018-03-24T04:22:12.537Z,5.40
2018-03-24T04:24:40.059Z,5.40
2018-03-24T04:27:07.547Z,5.40
2018-03-24T04:29:35.822Z,5.40
2018-03-24T04:32:03.309Z,5.40
2018-03-24T04:34:30.795Z,5.40
2018-03-24T04:36:58.307Z,5.40
2018-03-24T04:39:25.821Z,5.40
2018-03-24T04:41:54.083Z,5.40
2018-03-24T04:44:21.608Z,5.40
2018-03-24T04:46:49.098Z,5.40
2018-03-24T04:49:17.365Z,5.40
2018-03-24T04:51:45.619Z,5.40
2018-03-24T04:54:13.085Z,5.40
2018-03-24T04:56:40.570Z,5.40
2018-03-24T04:59:08.055Z,5.50
2018-03-24T05:01:35.550Z,5.40
2018-03-24T05:04:03.035Z,5.40
2018-03-24T05:06:30.515Z,5.50
2018-03-24T05:08:58.000Z,5.40
2018-03-24T05:11:25.480Z,5.50
2018-03-24T05:13:52.966Z,5.50
2018-03-24T05:16:20.447Z,5.50
2018-03-24T05:18:47.938Z,5.50
2018-03-24T05:21:15.424Z,5.40
2018-03-24T05:23:42.936Z,5.40
2018-03-24T05:26:10.482Z,5.40
2018-03-24T05:28:38.123Z,5.40
2018-03-24T05:31:05.622Z,5.40
2018-03-24T05:33:33.134Z,5.40
2018-03-24T05:36:00.608Z,5.40
2018-03-24T05:38:28.106Z,5.40
2018-03-24T05:40:55.609Z,5.40
2018-03-24T05:43:23.885Z,5.40
2018-03-24T05:45:52.152Z,5.40
2018-03-24T05:48:19.635Z,5.40
2018-03-24T05:50:47.118Z,5.40
2018-03-24T05:53:14.594Z,5.40
2018-03-24T05:55:42.069Z,5.40
2018-03-24T05:58:09.570Z,5.40
2018-03-24T06:00:37.063Z,5.40
2018-03-24T06:03:04.561Z,5.40
2018-03-24T06:05:32.037Z,5.40
2018-03-24T06:07:59.531Z,5.40
2018-03-24T06:10:27.014Z,5.40
2018-03-24T06:12:55.264Z,5.40
2018-03-24T06:15:22.742Z,5.40
2018-03-24T06:17:51.044Z,5.40
2018-03-24T06:20:18.795Z,5.40
2018-03-24T06:22:46.279Z,5.50
2018-03-24T06:25:13.784Z,5.50
2018-03-24T06:27:41.279Z,5.50
2018-03-24T06:30:13.281Z,5.60
2018-03-24T06:32:40.580Z,5.50
2018-03-24T06:35:07.889Z,5.50
2018-03-24T06:37:35.577Z,5.50
2018-03-24T06:40:03.058Z,5.60
2018-03-24T06:42:30.568Z,5.60
2018-03-24T06:44:58.115Z,5.60
2018-03-24T06:47:25.745Z,5.60
2018-03-24T06:49:53.269Z,5.60
2018-03-24T06:52:20.782Z,5.60
2018-03-24T06:54:49.065Z,5.70
2018-03-24T06:57:16.576Z,5.70
2018-03-24T06:59:44.079Z,5.70
2018-03-24T07:02:11.597Z,5.80
2018-03-24T07:04:39.134Z,5.80
2018-03-24T07:07:06.633Z,5.80
2018-03-24T07:09:34.132Z,5.80
2018-03-24T07:12:01.669Z,5.80
2018-03-24T07:14:29.193Z,5.80
2018-03-24T07:16:56.523Z,5.80
2018-03-24T07:19:24.036Z,5.90
2018-03-24T07:21:51.548Z,5.90
2018-03-24T07:24:19.816Z,5.90
2018-03-24T07:26:48.290Z,6.00
2018-03-24T07:29:15.892Z,5.90
2018-03-24T07:31:44.927Z,6.00
2018-03-24T07:34:13.227Z,6.00
2018-03-24T07:36:41.518Z,6.00
2018-03-24T07:39:09.075Z,6.00
2018-03-24T07:41:36.617Z,6.00
2018-03-24T07:44:04.893Z,6.10
2018-03-24T07:46:33.175Z,6.10
2018-03-24T07:49:01.475Z,6.20
2018-03-24T07:51:29.782Z,6.20
2018-03-24T07:53:57.289Z,6.20
2018-03-24T07:56:24.794Z,6.20
2018-03-24T07:58:52.846Z,6.30
2018-03-24T08:01:20.355Z,6.30
2018-03-24T08:03:47.877Z,6.30
2018-03-24T08:06:15.406Z,6.40
2018-03-24T08:08:42.913Z,6.40
2018-03-24T08:11:10.425Z,6.50
2018-03-24T08:13:37.943Z,6.60
2018-03-24T08:16:05.461Z,6.60
2018-03-24T08:18:33.744Z,6.60
2018-03-24T08:21:02.037Z,6.70
2018-03-24T08:23:30.342Z,6.70
2018-03-24T08:25:58.821Z,6.80
2018-03-24T08:28:27.123Z,6.90
2018-03-24T08:30:55.515Z,6.90
2018-03-24T08:33:23.041Z,6.80
2018-03-24T08:35:50.307Z,6.90
2018-03-24T08:38:17.843Z,7.00
2018-03-24T08:40:45.513Z,7.00
2018-03-24T08:43:13.001Z,7.10
2018-03-24T08:45:40.520Z,7.10
2018-03-24T08:48:08.027Z,7.20
2018-03-24T08:50:36.079Z,7.20
2018-03-24T08:53:04.434Z,7.20
2018-03-24T08:55:31.980Z,7.20
2018-03-24T08:57:59.325Z,7.20
2018-03-24T09:00:26.847Z,7.30
2018-03-24T09:02:54.472Z,7.40
2018-03-24T09:05:23.164Z,7.40
2018-03-24T09:07:50.658Z,7.40
2018-03-24T09:10:18.624Z,7.50
2018-03-24T09:12:46.133Z,7.50
2018-03-24T09:15:13.643Z,7.60
2018-03-24T09:17:41.127Z,7.60
2018-03-24T09:20:08.484Z,7.50
2018-03-24T09:22:36.014Z,7.60
2018-03-24T09:25:03.517Z,7.50
2018-03-24T09:27:31.032Z,7.60
2018-03-24T09:29:58.535Z,7.60
2018-03-24T09:32:26.026Z,7.60
2018-03-24T09:34:53.575Z,7.70
2018-03-24T09:37:21.063Z,7.80
2018-03-24T09:39:48.581Z,7.80
2018-03-24T09:42:16.163Z,7.90
2018-03-24T09:44:43.652Z,8.10
2018-03-24T09:47:11.178Z,8.30
2018-03-24T09:49:38.684Z,8.40
2018-03-24T09:52:06.177Z,8.60
2018-03-24T09:54:33.692Z,8.70
2018-03-24T09:57:01.179Z,8.80
2018-03-24T09:59:28.681Z,8.80
2018-03-24T10:01:56.211Z,9.00
2018-03-24T10:04:23.694Z,9.10
2018-03-24T10:06:51.186Z,9.20
2018-03-24T10:09:18.691Z,9.20
2018-03-24T10:11:47.008Z,9.30
2018-03-24T10:14:14.488Z,9.20
2018-03-24T10:16:42.005Z,9.40
2018-03-24T10:19:09.683Z,9.40
2018-03-24T10:21:42.867Z,9.20
2018-03-24T10:24:13.569Z,9.10
2018-03-24T10:26:41.141Z,9.10
2018-03-24T10:29:08.631Z,9.10
2018-03-24T10:31:36.926Z,9.00
2018-03-24T10:34:04.407Z,9.00
2018-03-24T10:36:31.911Z,9.00
2018-03-24T10:38:59.417Z,9.20
2018-03-24T10:41:26.977Z,9.30
2018-03-24T10:43:54.656Z,9.30
2018-03-24T10:46:22.153Z,9.40
2018-03-24T10:48:49.662Z,9.30
2018-03-24T10:51:17.971Z,9.50
2018-03-24T10:53:45.480Z,9.50
2018-03-24T10:56:12.975Z,9.50
2018-03-24T10:58:40.486Z,9.40
2018-03-24T11:01:13.786Z,9.50
2018-03-24T11:03:41.282Z,9.40
2018-03-24T11:06:09.402Z,9.40
2018-03-24T11:08:36.935Z,9.40
2018-03-24T11:11:04.457Z,9.50
2018-03-24T11:13:31.981Z,9.60
2018-03-24T11:15:59.505Z,9.70
2018-03-24T11:18:27.820Z,9.50
2018-03-24T11:20:55.157Z,9.50
2018-03-24T11:23:22.659Z,9.50
2018-03-24T11:25:50.165Z,9.60
2018-03-24T11:28:17.652Z,9.70
2018-03-24T11:30:45.961Z,9.90
2018-03-24T11:33:13.472Z,9.90
2018-03-24T11:35:41.067Z,10.00
2018-03-24T11:38:08.564Z,10.00
2018-03-24T11:40:36.066Z,10.10
2018-03-24T11:43:03.560Z,10.00
2018-03-24T11:45:31.850Z,9.90
2018-03-24T11:47:59.403Z,9.90
2018-03-24T11:50:27.689Z,10.10
2018-03-24T11:52:55.987Z,10.00
2018-03-24T11:55:23.506Z,10.00
2018-03-24T11:57:51.002Z,10.00
2018-03-24T12:00:18.506Z,10.10
2018-03-24T12:02:45.997Z,10.10
2018-03-24T12:05:13.507Z,10.20
2018-03-24T12:07:41.014Z,10.10
2018-03-24T12:10:08.540Z,10.30
2018-03-24T12:12:36.042Z,10.30
2018-03-24T12:15:03.569Z,10.30
2018-03-24T12:17:31.079Z,10.20
2018-03-24T12:19:58.774Z,10.40
2018-03-24T12:22:26.264Z,10.40
2018-03-24T12:24:53.755Z,10.30
2018-03-24T12:27:21.279Z,10.40
2018-03-24T12:29:48.789Z,10.30
2018-03-24T12:32:16.303Z,10.30
2018-03-24T12:34:43.788Z,10.20
2018-03-24T12:37:11.296Z,10.10
2018-03-24T12:39:38.814Z,10.20
2018-03-24T12:42:06.535Z,10.30
2018-03-24T12:44:34.059Z,10.20
2018-03-24T12:47:02.344Z,10.40
2018-03-24T12:49:29.887Z,10.30
2018-03-24T12:51:57.411Z,10.30
2018-03-24T12:54:25.719Z,10.60
2018-03-24T12:56:53.228Z,10.50
2018-03-24T12:59:20.801Z,10.50
2018-03-24T13:01:48.326Z,10.70
2018-03-24T13:04:15.861Z,10.70
2018-03-24T13:06:44.159Z,10.70
2018-03-24T13:09:11.665Z,10.70
2018-03-24T13:11:39.090Z,11.00
2018-03-24T13:14:07.874Z,10.90
2018-03-24T13:16:35.409Z,10.90
2018-03-24T13:19:02.940Z,11.00
2018-03-24T13:21:30.463Z,10.90
2018-03-24T13:23:57.980Z,11.00
2018-03-24T13:26:25.479Z,11.10
2018-03-24T13:28:53.166Z,11.30
2018-03-24T13:31:20.690Z,11.10
2018-03-24T13:33:48.193Z,11.30
2018-03-24T13:36:15.709Z,11.20
2018-03-24T13:38:43.241Z,11.30
2018-03-24T13:41:10.744Z,10.90
2018-03-24T13:43:38.263Z,11.00
2018-03-24T13:46:05.773Z,11.20
2018-03-24T13:48:33.336Z,11.20
2018-03-24T13:51:00.834Z,11.20
2018-03-24T13:53:29.110Z,11.50
2018-03-24T13:55:57.402Z,11.30
2018-03-24T13:58:24.947Z,11.30
2018-03-24T14:00:52.465Z,11.30
2018-03-24T14:03:19.981Z,11.10
2018-03-24T14:05:48.307Z,11.00
2018-03-24T14:08:15.830Z,11.00
2018-03-24T14:10:43.355Z,10.80
2018-03-24T14:13:10.879Z,11.10
2018-03-24T14:15:38.591Z,11.20
2018-03-24T14:18:06.119Z,11.30
2018-03-24T14:20:33.632Z,11.60
2018-03-24T14:23:01.169Z,11.30
2018-03-24T14:25:29.404Z,12.00
2018-03-24T14:27:56.929Z,11.90
2018-03-24T14:30:24.484Z,12.50
2018-03-24T14:32:52.014Z,12.30
2018-03-24T14:35:19.542Z,11.50
2018-03-24T14:37:47.025Z,11.10
2018-03-24T14:40:14.678Z,11.60
2018-03-24T14:42:42.207Z,11.40
2018-03-24T14:45:09.727Z,11.10
2018-03-24T14:47:37.269Z,10.80
2018-03-24T14:50:05.551Z,10.60
2018-03-24T14:52:33.857Z,10.70
2018-03-24T14:55:01.353Z,10.70
2018-03-24T14:57:28.860Z,10.50
2018-03-24T14:59:56.343Z,10.20
2018-03-24T15:02:23.856Z,10.30
2018-03-24T15:04:51.375Z,10.40
2018-03-24T15:07:18.903Z,10.80
2018-03-24T15:09:46.406Z,10.70
2018-03-24T15:12:13.896Z,10.80
2018-03-24T15:14:41.405Z,10.60
2018-03-24T15:17:08.925Z,10.70
2018-03-24T15:19:36.445Z,10.70
2018-03-24T15:22:03.960Z,10.80
2018-03-24T15:24:31.477Z,10.70
2018-03-24T15:26:59.030Z,10.90
2018-03-24T15:29:33.001Z,11.00
2018-03-24T15:32:06.191Z,11.00
2018-03-24T15:34:40.076Z,11.20
2018-03-24T15:37:07.419Z,11.60
2018-03-24T15:39:34.924Z,11.90
2018-03-24T15:42:02.411Z,11.90
2018-03-24T15:44:30.722Z,12.30
2018-03-24T15:46:58.796Z,12.30
2018-03-24T15:49:26.321Z,12.30
2018-03-24T15:51:53.808Z,12.30
2018-03-24T15:54:21.319Z,12.80
2018-03-24T15:56:48.822Z,13.10
2018-03-24T15:59:16.308Z,13.20
2018-03-24T16:01:43.799Z,12.40
2018-03-24T16:04:11.289Z,12.40
2018-03-24T16:06:39.602Z,12.40
2018-03-24T16:09:07.125Z,12.50
2018-03-24T16:11:34.672Z,12.90
2018-03-24T16:14:02.175Z,12.40
2018-03-24T16:16:29.677Z,12.60
2018-03-24T16:18:57.173Z,13.00
2018-03-24T16:21:24.692Z,12.30
2018-03-24T16:23:52.370Z,12.50
2018-03-24T16:26:19.866Z,12.30
2018-03-24T16:28:47.382Z,12.60
2018-03-24T16:31:14.887Z,12.60
2018-03-24T16:33:42.377Z,12.90
2018-03-24T16:36:09.894Z,13.00
2018-03-24T16:38:37.466Z,12.00
2018-03-24T16:41:05.061Z,11.50
2018-03-24T16:43:33.355Z,10.40
2018-03-24T16:46:00.927Z,10.40
2018-03-24T16:48:28.453Z,10.50
2018-03-24T16:50:55.951Z,10.30
2018-03-24T16:53:23.516Z,10.00
2018-03-24T16:55:51.071Z,10.00
2018-03-24T16:58:18.616Z,9.80
2018-03-24T17:00:46.175Z,9.70
2018-03-24T17:03:13.710Z,9.60
2018-03-24T17:05:41.202Z,9.50
2018-03-24T17:08:08.696Z,9.40
2018-03-24T17:10:36.429Z,9.30
2018-03-24T17:13:03.973Z,9.30
2018-03-24T17:15:31.461Z,9.20
2018-03-24T17:17:58.968Z,9.20
2018-03-24T17:20:26.460Z,9.00
2018-03-24T17:22:53.992Z,8.90
2018-03-24T17:25:21.508Z,8.80
2018-03-24T17:27:49.030Z,8.80
2018-03-24T17:30:16.736Z,8.60
2018-03-24T17:32:44.274Z,8.60
2018-03-24T17:35:12.607Z,8.40
2018-03-24T17:37:40.113Z,8.40
2018-03-24T17:40:08.419Z,8.10
2018-03-24T17:42:36.878Z,8.10
2018-03-24T17:45:05.150Z,7.90
2018-03-24T17:47:32.621Z,7.90
2018-03-24T17:50:00.127Z,7.90
2018-03-24T17:52:27.645Z,7.80
2018-03-24T17:54:55.132Z,7.80
2018-03-24T17:57:24.326Z,7.60
2018-03-24T17:59:51.821Z,7.60
2018-03-24T18:02:19.341Z,7.50
2018-03-24T18:04:46.813Z,7.30
2018-03-24T18:07:15.858Z,7.10
2018-03-24T18:09:43.411Z,7.10
2018-03-24T18:12:11.685Z,7.00
2018-03-24T18:14:39.183Z,7.00
2018-03-24T18:17:06.722Z,6.90
2018-03-24T18:19:34.225Z,6.90
2018-03-24T18:22:01.727Z,6.90
2018-03-24T18:24:29.223Z,6.80
2018-03-24T18:26:56.717Z,6.70
2018-03-24T18:29:25.222Z,6.60
2018-03-24T18:31:55.961Z,6.60
2018-03-24T18:34:23.457Z,6.50
2018-03-24T18:36:50.960Z,6.50
2018-03-24T18:39:18.452Z,6.40
2018-03-24T18:41:46.732Z,6.40
2018-03-24T18:44:15.013Z,6.40
2018-03-24T18:46:43.118Z,6.30
2018-03-24T18:49:10.444Z,6.30
2018-03-24T18:51:38.737Z,6.20
2018-03-24T18:54:06.277Z,6.20
2018-03-24T18:56:33.782Z,6.20
2018-03-24T18:59:01.278Z,6.20
2018-03-24T19:01:28.770Z,6.20
2018-03-24T19:03:56.285Z,6.10
2018-03-24T19:06:23.804Z,6.10
2018-03-24T19:08:51.309Z,6.00
2018-03-24T19:11:18.634Z,6.00
2018-03-24T19:13:46.130Z,5.90
2018-03-24T19:16:13.675Z,5.80
2018-03-24T19:18:41.180Z,5.80
2018-03-24T19:21:08.698Z,5.80
2018-03-24T19:23:36.214Z,5.70
2018-03-24T19:26:03.679Z,5.70
2018-03-24T19:28:31.261Z,5.60
2018-03-24T19:30:58.754Z,5.60
2018-03-24T19:33:26.266Z,5.60
2018-03-24T19:35:53.825Z,5.40
2018-03-24T19:38:21.317Z,5.40
2018-03-24T19:40:48.793Z,5.30
2018-03-24T19:43:16.324Z,5.20
2018-03-24T19:45:43.839Z,5.20
2018-03-24T19:48:12.275Z,5.10
2018-03-24T19:50:39.820Z,5.10
2018-03-24T19:53:07.489Z,5.10
2018-03-24T19:55:35.033Z,5.10
2018-03-24T19:58:02.515Z,5.00
2018-03-24T20:00:30.032Z,5.00
2018-03-24T20:02:57.522Z,5.00
2018-03-24T20:05:25.027Z,5.00
2018-03-24T20:07:52.529Z,4.90
2018-03-24T20:10:20.072Z,4.90
2018-03-24T20:12:48.331Z,4.80
2018-03-24T20:15:15.829Z,4.80
2018-03-24T20:17:43.366Z,4.70
2018-03-24T20:20:10.928Z,4.70
2018-03-24T20:22:38.586Z,4.70
2018-03-24T20:25:06.115Z,4.60
2018-03-24T20:27:33.638Z,4.60
2018-03-24T20:30:01.964Z,4.50
2018-03-24T20:32:29.493Z,4.50
2018-03-24T20:34:56.994Z,4.50
2018-03-24T20:37:24.494Z,4.50
2018-03-24T20:39:52.022Z,4.50
2018-03-24T20:42:19.513Z,4.50
2018-03-24T20:44:47.033Z,4.50
2018-03-24T20:47:14.549Z,4.50
2018-03-24T20:49:42.058Z,4.50
2018-03-24T20:52:09.538Z,4.50
2018-03-24T20:54:36.849Z,4.40
2018-03-24T20:57:04.341Z,4.50
2018-03-24T20:59:31.834Z,4.50
2018-03-24T21:01:59.332Z,4.50
2018-03-24T21:04:26.838Z,4.40
2018-03-24T21:06:54.384Z,4.40
2018-03-24T21:09:21.955Z,4.40
2018-03-24T21:11:49.494Z,4.30
2018-03-24T21:14:17.021Z,4.30
2018-03-24T21:16:44.510Z,4.20
2018-03-24T21:19:12.013Z,4.20
2018-03-24T21:21:39.538Z,4.20
2018-03-24T21:24:07.057Z,4.20
2018-03-24T21:26:34.571Z,4.20
2018-03-24T21:29:02.819Z,4.10
2018-03-24T21:31:30.323Z,4.10
2018-03-24T21:33:58.019Z,4.10
2018-03-24T21:36:25.539Z,4.10
2018-03-24T21:38:53.045Z,4.10
2018-03-24T21:41:21.506Z,4.00
2018-03-24T21:43:49.806Z,3.90
2018-03-24T21:46:18.100Z,4.00
2018-03-24T21:48:45.649Z,4.00
2018-03-24T21:51:13.202Z,4.00
2018-03-24T21:53:41.316Z,3.90
2018-03-24T21:56:08.817Z,3.90
2018-03-24T21:58:36.361Z,3.90
2018-03-24T22:01:05.735Z,3.90
2018-03-24T22:03:31.628Z,3.80
2018-03-24T22:05:59.132Z,3.80
2018-03-24T22:08:26.648Z,3.80
2018-03-24T22:10:54.168Z,3.80
2018-03-24T22:13:21.721Z,3.90
2018-03-24T22:15:49.237Z,3.90
2018-03-24T22:18:17.357Z,3.90
2018-03-24T22:20:44.855Z,3.90
2018-03-24T22:23:13.142Z,3.70
2018-03-24T22:25:41.458Z,3.70
2018-03-24T22:28:08.954Z,3.70
2018-03-24T22:30:36.441Z,3.60
2018-03-24T22:33:03.927Z,3.60
2018-03-24T22:35:31.435Z,3.60
2018-03-24T22:37:58.946Z,3.60
2018-03-24T22:40:26.464Z,3.60
2018-03-24T22:42:53.983Z,3.60
2018-03-24T22:45:21.483Z,3.50
2018-03-24T22:47:49.760Z,3.50
2018-03-24T22:50:18.038Z,3.50
2018-03-24T22:52:46.364Z,3.40
2018-03-24T22:55:14.657Z,3.50
2018-03-24T22:57:42.139Z,3.40
2018-03-24T23:00:09.400Z,3.60
2018-03-24T23:02:36.908Z,3.70
2018-03-24T23:05:04.410Z,3.70
2018-03-24T23:07:31.910Z,3.70
2018-03-24T23:10:00.214Z,3.80
2018-03-24T23:12:27.737Z,3.80
2018-03-24T23:14:55.312Z,3.80
2018-03-24T23:17:22.943Z,3.80
2018-03-24T23:19:50.441Z,3.80
2018-03-24T23:22:17.943Z,3.70
2018-03-24T23:24:45.435Z,3.60
2018-03-24T23:27:12.953Z,3.50
2018-03-24T23:29:40.442Z,3.50
2018-03-24T23:32:07.978Z,3.40
2018-03-24T23:34:35.461Z,3.40
2018-03-24T23:37:02.946Z,3.30
2018-03-24T23:39:30.434Z,3.10
2018-03-24T23:41:57.916Z,3.00
2018-03-24T23:44:25.401Z,3.00
2018-03-24T23:47:02.053Z,2.90
2018-03-24T23:49:30.362Z,2.80
2018-03-24T23:51:58.256Z,2.80
2018-03-24T23:54:26.001Z,2.70
2018-03-24T23:56:53.481Z,2.60
2018-03-24T23:59:20.992Z,2.60
